sensor_id;sensor_type;location;lat;lon;timestamp;temperature;humidity
23713;DHT22;12035;49.978;8.298;2023-09-30T00:01:51;22.60;54.90
23713;DHT22;12035;49.978;8.298;2023-09-30T00:06:49;22.60;54.90
23713;DHT22;12035;49.978;8.298;2023-09-30T00:11:46;22.50;54.90
23713;DHT22;12035;49.978;8.298;2023-09-30T00:16:43;22.50;54.90
23713;DHT22;12035;49.978;8.298;2023-09-30T00:21:41;22.50;54.90
23713;DHT22;12035;49.978;8.298;2023-09-30T00:26:39;22.50;54.90
23713;DHT22;12035;49.978;8.298;2023-09-30T00:31:36;22.50;55.00
23713;DHT22;12035;49.978;8.298;2023-09-30T00:36:33;22.50;55.00
23713;DHT22;12035;49.978;8.298;2023-09-30T00:41:31;22.50;55.00
23713;DHT22;12035;49.978;8.298;2023-09-30T00:46:29;22.50;55.00
23713;DHT22;12035;49.978;8.298;2023-09-30T00:51:28;22.50;55.00
23713;DHT22;12035;49.978;8.298;2023-09-30T00:56:27;22.50;54.90
23713;DHT22;12035;49.978;8.298;2023-09-30T01:01:27;22.50;54.90
23713;DHT22;12035;49.978;8.298;2023-09-30T01:06:24;22.50;54.80
23713;DHT22;12035;49.978;8.298;2023-09-30T01:11:22;22.50;54.70
23713;DHT22;12035;49.978;8.298;2023-09-30T01:16:19;22.50;54.80
23713;DHT22;12035;49.978;8.298;2023-09-30T01:21:18;22.40;54.80
23713;DHT22;12035;49.978;8.298;2023-09-30T01:26:16;22.40;54.80
23713;DHT22;12035;49.978;8.298;2023-09-30T01:31:13;22.40;54.80
23713;DHT22;12035;49.978;8.298;2023-09-30T01:36:11;22.30;54.60
23713;DHT22;12035;49.978;8.298;2023-09-30T01:41:08;22.30;54.50
23713;DHT22;12035;49.978;8.298;2023-09-30T01:46:06;22.20;54.40
23713;DHT22;12035;49.978;8.298;2023-09-30T01:51:03;22.10;54.70
23713;DHT22;12035;49.978;8.298;2023-09-30T01:56:00;22.00;54.70
23713;DHT22;12035;49.978;8.298;2023-09-30T02:01:02;22.00;54.80
23713;DHT22;12035;49.978;8.298;2023-09-30T02:06:01;21.90;54.90
23713;DHT22;12035;49.978;8.298;2023-09-30T02:10:59;21.90;54.80
23713;DHT22;12035;49.978;8.298;2023-09-30T02:15:56;21.80;54.80
23713;DHT22;12035;49.978;8.298;2023-09-30T02:20:53;21.80;54.80
23713;DHT22;12035;49.978;8.298;2023-09-30T02:25:51;21.80;54.80
23713;DHT22;12035;49.978;8.298;2023-09-30T02:30:48;21.70;54.60
23713;DHT22;12035;49.978;8.298;2023-09-30T02:35:45;21.60;54.50
23713;DHT22;12035;49.978;8.298;2023-09-30T02:40:44;21.60;54.50
23713;DHT22;12035;49.978;8.298;2023-09-30T02:45:43;21.50;54.50
23713;DHT22;12035;49.978;8.298;2023-09-30T02:50:42;21.50;54.60
23713;DHT22;12035;49.978;8.298;2023-09-30T02:55:41;21.40;54.50
23713;DHT22;12035;49.978;8.298;2023-09-30T03:00:39;21.40;54.40
23713;DHT22;12035;49.978;8.298;2023-09-30T03:05:37;21.30;54.30
23713;DHT22;12035;49.978;8.298;2023-09-30T03:10:34;21.30;54.20
23713;DHT22;12035;49.978;8.298;2023-09-30T03:15:35;21.20;54.20
23713;DHT22;12035;49.978;8.298;2023-09-30T03:20:34;21.20;54.40
23713;DHT22;12035;49.978;8.298;2023-09-30T03:25:34;21.10;54.40
23713;DHT22;12035;49.978;8.298;2023-09-30T03:30:31;21.10;54.60
23713;DHT22;12035;49.978;8.298;2023-09-30T03:35:29;21.10;54.70
23713;DHT22;12035;49.978;8.298;2023-09-30T03:40:27;21.00;54.80
23713;DHT22;12035;49.978;8.298;2023-09-30T03:45:30;21.00;54.80
23713;DHT22;12035;49.978;8.298;2023-09-30T03:50:28;20.90;54.80
23713;DHT22;12035;49.978;8.298;2023-09-30T03:55:25;20.90;54.80
23713;DHT22;12035;49.978;8.298;2023-09-30T04:00:22;20.80;54.80
23713;DHT22;12035;49.978;8.298;2023-09-30T04:05:21;20.70;55.50
23713;DHT22;12035;49.978;8.298;2023-09-30T04:10:24;20.70;54.90
23713;DHT22;12035;49.978;8.298;2023-09-30T04:15:22;20.60;55.00
23713;DHT22;12035;49.978;8.298;2023-09-30T04:20:19;20.60;55.10
23713;DHT22;12035;49.978;8.298;2023-09-30T04:25:20;20.50;55.10
23713;DHT22;12035;49.978;8.298;2023-09-30T04:30:18;20.40;55.10
23713;DHT22;12035;49.978;8.298;2023-09-30T04:35:15;20.30;55.20
23713;DHT22;12035;49.978;8.298;2023-09-30T04:40:13;20.30;55.30
23713;DHT22;12035;49.978;8.298;2023-09-30T04:45:15;20.30;55.50
23713;DHT22;12035;49.978;8.298;2023-09-30T04:50:15;20.30;55.60
23713;DHT22;12035;49.978;8.298;2023-09-30T04:55:12;20.20;55.60
23713;DHT22;12035;49.978;8.298;2023-09-30T05:00:13;20.20;55.60
23713;DHT22;12035;49.978;8.298;2023-09-30T05:05:12;20.10;55.60
23713;DHT22;12035;49.978;8.298;2023-09-30T05:10:10;20.10;55.60
23713;DHT22;12035;49.978;8.298;2023-09-30T05:15:11;20.10;55.70
23713;DHT22;12035;49.978;8.298;2023-09-30T05:20:12;20.00;55.70
23713;DHT22;12035;49.978;8.298;2023-09-30T05:25:12;20.00;55.80
23713;DHT22;12035;49.978;8.298;2023-09-30T05:30:12;20.00;55.90
23713;DHT22;12035;49.978;8.298;2023-09-30T05:35:12;19.90;55.90
23713;DHT22;12035;49.978;8.298;2023-09-30T05:40:09;19.80;56.00
23713;DHT22;12035;49.978;8.298;2023-09-30T05:45:16;19.80;56.20
23713;DHT22;12035;49.978;8.298;2023-09-30T05:50:14;19.80;56.40
23713;DHT22;12035;49.978;8.298;2023-09-30T05:55:11;19.80;56.50
23713;DHT22;12035;49.978;8.298;2023-09-30T06:00:12;19.80;56.60
23713;DHT22;12035;49.978;8.298;2023-09-30T06:05:17;20.00;56.90
23713;DHT22;12035;49.978;8.298;2023-09-30T06:10:15;20.10;57.00
23713;DHT22;12035;49.978;8.298;2023-09-30T06:15:14;20.30;57.20
23713;DHT22;12035;49.978;8.298;2023-09-30T06:20:18;20.60;57.00
23713;DHT22;12035;49.978;8.298;2023-09-30T06:25:18;20.80;56.50
23713;DHT22;12035;49.978;8.298;2023-09-30T06:30:15;21.10;56.70
23713;DHT22;12035;49.978;8.298;2023-09-30T06:35:13;21.40;57.00
23713;DHT22;12035;49.978;8.298;2023-09-30T06:40:12;21.90;57.20
23713;DHT22;12035;49.978;8.298;2023-09-30T06:45:09;22.40;56.50
23713;DHT22;12035;49.978;8.298;2023-09-30T06:50:09;23.00;55.80
23713;DHT22;12035;49.978;8.298;2023-09-30T06:55:08;23.40;55.00
23713;DHT22;12035;49.978;8.298;2023-09-30T07:00:09;23.90;54.50
23713;DHT22;12035;49.978;8.298;2023-09-30T07:05:08;24.30;53.30
23713;DHT22;12035;49.978;8.298;2023-09-30T07:10:06;24.70;53.20
23713;DHT22;12035;49.978;8.298;2023-09-30T07:15:07;25.00;52.50
23713;DHT22;12035;49.978;8.298;2023-09-30T07:20:06;25.40;52.50
23713;DHT22;12035;49.978;8.298;2023-09-30T07:25:05;25.90;52.20
23713;DHT22;12035;49.978;8.298;2023-09-30T07:30:05;26.30;51.40
23713;DHT22;12035;49.978;8.298;2023-09-30T07:35:06;26.70;50.70
23713;DHT22;12035;49.978;8.298;2023-09-30T07:40:05;27.20;50.10
23713;DHT22;12035;49.978;8.298;2023-09-30T07:45:04;27.60;49.80
23713;DHT22;12035;49.978;8.298;2023-09-30T07:50:05;28.00;48.80
23713;DHT22;12035;49.978;8.298;2023-09-30T07:55:05;28.40;48.70
23713;DHT22;12035;49.978;8.298;2023-09-30T08:00:05;28.80;47.60
23713;DHT22;12035;49.978;8.298;2023-09-30T08:05:10;29.10;46.70
23713;DHT22;12035;49.978;8.298;2023-09-30T08:10:08;29.40;46.10
23713;DHT22;12035;49.978;8.298;2023-09-30T08:15:10;29.50;45.20
23713;DHT22;12035;49.978;8.298;2023-09-30T08:20:09;29.70;44.30
23713;DHT22;12035;49.978;8.298;2023-09-30T08:25:07;29.80;44.20
23713;DHT22;12035;49.978;8.298;2023-09-30T08:30:07;29.90;43.20
23713;DHT22;12035;49.978;8.298;2023-09-30T08:35:08;29.90;42.80
23713;DHT22;12035;49.978;8.298;2023-09-30T08:40:07;30.00;42.40
23713;DHT22;12035;49.978;8.298;2023-09-30T08:45:10;30.00;42.10
23713;DHT22;12035;49.978;8.298;2023-09-30T08:50:12;30.00;41.30
23713;DHT22;12035;49.978;8.298;2023-09-30T08:55:10;29.90;41.10
23713;DHT22;12035;49.978;8.298;2023-09-30T09:00:09;29.90;41.40
23713;DHT22;12035;49.978;8.298;2023-09-30T09:05:08;29.90;40.30
23713;DHT22;12035;49.978;8.298;2023-09-30T09:10:08;29.90;40.30
23713;DHT22;12035;49.978;8.298;2023-09-30T09:15:07;29.80;39.90
23713;DHT22;12035;49.978;8.298;2023-09-30T09:20:06;29.80;39.60
23713;DHT22;12035;49.978;8.298;2023-09-30T09:25:07;29.80;39.50
23713;DHT22;12035;49.978;8.298;2023-09-30T09:30:15;29.70;39.40
23713;DHT22;12035;49.978;8.298;2023-09-30T09:35:20;29.70;39.50
23713;DHT22;12035;49.978;8.298;2023-09-30T09:40:22;29.60;38.80
23713;DHT22;12035;49.978;8.298;2023-09-30T09:45:21;29.60;38.90
23713;DHT22;12035;49.978;8.298;2023-09-30T09:50:20;29.50;39.30
23713;DHT22;12035;49.978;8.298;2023-09-30T09:55:22;29.40;38.70
23713;DHT22;12035;49.978;8.298;2023-09-30T10:00:23;29.30;38.50
23713;DHT22;12035;49.978;8.298;2023-09-30T10:05:21;29.20;38.20
23713;DHT22;12035;49.978;8.298;2023-09-30T10:10:21;29.20;38.50
23713;DHT22;12035;49.978;8.298;2023-09-30T10:15:37;29.30;38.70
23713;DHT22;12035;49.978;8.298;2023-09-30T10:20:38;29.30;38.10
23713;DHT22;12035;49.978;8.298;2023-09-30T10:25:38;29.30;38.50
23713;DHT22;12035;49.978;8.298;2023-09-30T10:30:36;29.40;38.30
23713;DHT22;12035;49.978;8.298;2023-09-30T10:35:50;29.50;38.00
23713;DHT22;12035;49.978;8.298;2023-09-30T10:40:50;29.50;37.30
23713;DHT22;12035;49.978;8.298;2023-09-30T10:45:48;29.40;37.30
23713;DHT22;12035;49.978;8.298;2023-09-30T10:50:53;29.40;37.50
23713;DHT22;12035;49.978;8.298;2023-09-30T10:55:58;29.40;36.80
23713;DHT22;12035;49.978;8.298;2023-09-30T11:00:56;29.40;36.50
23713;DHT22;12035;49.978;8.298;2023-09-30T11:05:53;29.40;36.80
23713;DHT22;12035;49.978;8.298;2023-09-30T11:10:50;29.40;36.50
23713;DHT22;12035;49.978;8.298;2023-09-30T11:15:59;29.40;35.80
23713;DHT22;12035;49.978;8.298;2023-09-30T11:21:08;29.40;35.90
23713;DHT22;12035;49.978;8.298;2023-09-30T11:26:08;29.40;35.90
23713;DHT22;12035;49.978;8.298;2023-09-30T11:31:08;29.40;36.10
23713;DHT22;12035;49.978;8.298;2023-09-30T11:36:07;29.30;35.90
23713;DHT22;12035;49.978;8.298;2023-09-30T11:41:05;29.30;36.20
23713;DHT22;12035;49.978;8.298;2023-09-30T11:46:08;29.30;36.20
23713;DHT22;12035;49.978;8.298;2023-09-30T11:51:06;29.30;35.60
23713;DHT22;12035;49.978;8.298;2023-09-30T11:56:03;29.30;36.10
23713;DHT22;12035;49.978;8.298;2023-09-30T12:01:03;29.30;36.10
23713;DHT22;12035;49.978;8.298;2023-09-30T12:06:03;29.40;36.00
23713;DHT22;12035;49.978;8.298;2023-09-30T12:11:01;29.50;35.60
23713;DHT22;12035;49.978;8.298;2023-09-30T12:15:58;29.60;35.50
23713;DHT22;12035;49.978;8.298;2023-09-30T12:20:55;29.60;35.50
23713;DHT22;12035;49.978;8.298;2023-09-30T12:25:53;29.60;36.10
23713;DHT22;12035;49.978;8.298;2023-09-30T12:30:51;29.60;35.70
23713;DHT22;12035;49.978;8.298;2023-09-30T12:35:48;29.60;35.70
23713;DHT22;12035;49.978;8.298;2023-09-30T12:40:45;29.60;35.50
23713;DHT22;12035;49.978;8.298;2023-09-30T12:45:43;29.50;35.50
23713;DHT22;12035;49.978;8.298;2023-09-30T12:50:41;29.40;35.20
23713;DHT22;12035;49.978;8.298;2023-09-30T12:55:38;29.30;35.20
23713;DHT22;12035;49.978;8.298;2023-09-30T13:00:35;29.20;35.30
23713;DHT22;12035;49.978;8.298;2023-09-30T13:05:36;29.20;35.00
23713;DHT22;12035;49.978;8.298;2023-09-30T13:10:33;29.10;34.50
23713;DHT22;12035;49.978;8.298;2023-09-30T13:15:30;29.10;35.00
23713;DHT22;12035;49.978;8.298;2023-09-30T13:20:27;29.00;34.60
23713;DHT22;12035;49.978;8.298;2023-09-30T13:25:26;28.80;34.70
23713;DHT22;12035;49.978;8.298;2023-09-30T13:30:23;28.70;34.90
23713;DHT22;12035;49.978;8.298;2023-09-30T13:35:21;28.70;35.10
23713;DHT22;12035;49.978;8.298;2023-09-30T13:40:18;28.60;35.00
23713;DHT22;12035;49.978;8.298;2023-09-30T13:45:16;28.50;35.20
23713;DHT22;12035;49.978;8.298;2023-09-30T13:50:14;28.40;35.60
23713;DHT22;12035;49.978;8.298;2023-09-30T13:55:11;28.30;35.60
23713;DHT22;12035;49.978;8.298;2023-09-30T14:00:15;28.10;35.30
23713;DHT22;12035;49.978;8.298;2023-09-30T14:05:13;28.00;35.50
23713;DHT22;12035;49.978;8.298;2023-09-30T14:10:10;27.90;35.70
23713;DHT22;12035;49.978;8.298;2023-09-30T14:15:08;27.80;35.70
23713;DHT22;12035;49.978;8.298;2023-09-30T14:20:08;27.70;35.70
23713;DHT22;12035;49.978;8.298;2023-09-30T14:25:08;27.70;35.60
23713;DHT22;12035;49.978;8.298;2023-09-30T14:30:06;27.60;35.70
23713;DHT22;12035;49.978;8.298;2023-09-30T14:35:05;27.50;35.80
23713;DHT22;12035;49.978;8.298;2023-09-30T14:40:05;27.50;36.10
23713;DHT22;12035;49.978;8.298;2023-09-30T14:45:07;27.50;36.50
23713;DHT22;12035;49.978;8.298;2023-09-30T14:50:08;27.40;36.60
23713;DHT22;12035;49.978;8.298;2023-09-30T14:55:07;27.40;36.50
23713;DHT22;12035;49.978;8.298;2023-09-30T15:00:06;27.50;36.60
23713;DHT22;12035;49.978;8.298;2023-09-30T15:05:05;27.50;36.70
23713;DHT22;12035;49.978;8.298;2023-09-30T15:10:05;27.40;36.80
23713;DHT22;12035;49.978;8.298;2023-09-30T15:15:04;27.40;36.90
23713;DHT22;12035;49.978;8.298;2023-09-30T15:20:02;27.40;37.00
23713;DHT22;12035;49.978;8.298;2023-09-30T15:25:04;27.40;37.20
23713;DHT22;12035;49.978;8.298;2023-09-30T15:30:02;27.50;37.10
23713;DHT22;12035;49.978;8.298;2023-09-30T15:35:01;27.40;37.10
23713;DHT22;12035;49.978;8.298;2023-09-30T15:40:03;27.40;37.10
23713;DHT22;12035;49.978;8.298;2023-09-30T15:45:01;27.40;37.20
23713;DHT22;12035;49.978;8.298;2023-09-30T15:49:59;27.30;37.00
23713;DHT22;12035;49.978;8.298;2023-09-30T15:54:56;27.30;37.30
23713;DHT22;12035;49.978;8.298;2023-09-30T15:59:54;27.20;37.10
23713;DHT22;12035;49.978;8.298;2023-09-30T16:04:51;27.20;37.10
23713;DHT22;12035;49.978;8.298;2023-09-30T16:09:48;27.20;37.40
23713;DHT22;12035;49.978;8.298;2023-09-30T16:14:46;27.10;37.30
23713;DHT22;12035;49.978;8.298;2023-09-30T16:19:44;27.10;37.30
23713;DHT22;12035;49.978;8.298;2023-09-30T16:24:41;27.00;37.50
23713;DHT22;12035;49.978;8.298;2023-09-30T16:29:38;27.00;37.60
23713;DHT22;12035;49.978;8.298;2023-09-30T16:34:36;26.90;37.60
23713;DHT22;12035;49.978;8.298;2023-09-30T16:39:34;26.80;37.80
23713;DHT22;12035;49.978;8.298;2023-09-30T16:44:32;26.80;38.60
23713;DHT22;12035;49.978;8.298;2023-09-30T16:49:29;26.70;38.80
23713;DHT22;12035;49.978;8.298;2023-09-30T16:54:26;26.60;39.20
23713;DHT22;12035;49.978;8.298;2023-09-30T16:59:24;26.50;39.50
23713;DHT22;12035;49.978;8.298;2023-09-30T17:04:22;26.40;39.80
23713;DHT22;12035;49.978;8.298;2023-09-30T17:09:19;26.30;39.50
23713;DHT22;12035;49.978;8.298;2023-09-30T17:14:16;26.20;39.90
23713;DHT22;12035;49.978;8.298;2023-09-30T17:19:15;26.10;40.20
23713;DHT22;12035;49.978;8.298;2023-09-30T17:24:12;26.00;40.40
23713;DHT22;12035;49.978;8.298;2023-09-30T17:29:09;25.90;40.50
23713;DHT22;12035;49.978;8.298;2023-09-30T17:34:06;25.80;40.50
23713;DHT22;12035;49.978;8.298;2023-09-30T17:39:05;25.70;40.90
23713;DHT22;12035;49.978;8.298;2023-09-30T17:44:02;25.60;41.00
23713;DHT22;12035;49.978;8.298;2023-09-30T17:49:00;25.60;41.10
23713;DHT22;12035;49.978;8.298;2023-09-30T17:53:58;25.50;41.20
23713;DHT22;12035;49.978;8.298;2023-09-30T17:58:56;25.40;41.20
23713;DHT22;12035;49.978;8.298;2023-09-30T18:03:53;25.30;41.50
23713;DHT22;12035;49.978;8.298;2023-09-30T18:08:50;25.20;41.70
23713;DHT22;12035;49.978;8.298;2023-09-30T18:13:48;25.10;41.90
23713;DHT22;12035;49.978;8.298;2023-09-30T18:18:46;25.00;42.00
23713;DHT22;12035;49.978;8.298;2023-09-30T18:23:43;25.00;42.20
23713;DHT22;12035;49.978;8.298;2023-09-30T18:28:40;24.90;42.50
23713;DHT22;12035;49.978;8.298;2023-09-30T18:33:38;24.80;42.40
23713;DHT22;12035;49.978;8.298;2023-09-30T18:38:37;24.70;42.80
23713;DHT22;12035;49.978;8.298;2023-09-30T18:43:34;24.60;43.10
23713;DHT22;12035;49.978;8.298;2023-09-30T18:48:32;24.50;43.10
23713;DHT22;12035;49.978;8.298;2023-09-30T18:53:29;24.40;43.90
23713;DHT22;12035;49.978;8.298;2023-09-30T18:58:27;24.30;43.50
23713;DHT22;12035;49.978;8.298;2023-09-30T19:03:24;24.20;43.90
23713;DHT22;12035;49.978;8.298;2023-09-30T19:08:22;24.00;43.90
23713;DHT22;12035;49.978;8.298;2023-09-30T19:13:19;23.90;44.00
23713;DHT22;12035;49.978;8.298;2023-09-30T19:18:17;23.80;44.30
23713;DHT22;12035;49.978;8.298;2023-09-30T19:23:15;23.80;44.60
23713;DHT22;12035;49.978;8.298;2023-09-30T19:28:12;23.70;44.70
23713;DHT22;12035;49.978;8.298;2023-09-30T19:33:09;23.60;44.90
23713;DHT22;12035;49.978;8.298;2023-09-30T19:38:07;23.50;44.90
23713;DHT22;12035;49.978;8.298;2023-09-30T19:43:04;23.40;45.20
23713;DHT22;12035;49.978;8.298;2023-09-30T19:48:02;23.30;45.20
23713;DHT22;12035;49.978;8.298;2023-09-30T19:52:59;23.20;45.50
23713;DHT22;12035;49.978;8.298;2023-09-30T19:57:58;23.20;45.70
23713;DHT22;12035;49.978;8.298;2023-09-30T20:02:55;23.10;45.90
23713;DHT22;12035;49.978;8.298;2023-09-30T20:07:52;23.00;45.90
23713;DHT22;12035;49.978;8.298;2023-09-30T20:12:50;22.90;46.00
23713;DHT22;12035;49.978;8.298;2023-09-30T20:17:48;22.80;46.00
23713;DHT22;12035;49.978;8.298;2023-09-30T20:22:46;22.80;46.40
23713;DHT22;12035;49.978;8.298;2023-09-30T20:27:44;22.70;46.40
23713;DHT22;12035;49.978;8.298;2023-09-30T20:32:41;22.60;46.60
23713;DHT22;12035;49.978;8.298;2023-09-30T20:37:39;22.50;46.70
23713;DHT22;12035;49.978;8.298;2023-09-30T20:42:36;22.40;46.80
23713;DHT22;12035;49.978;8.298;2023-09-30T20:47:35;22.40;47.00
23713;DHT22;12035;49.978;8.298;2023-09-30T20:52:32;22.40;47.20
23713;DHT22;12035;49.978;8.298;2023-09-30T20:57:30;22.30;47.20
23713;DHT22;12035;49.978;8.298;2023-09-30T21:02:28;22.20;47.40
23713;DHT22;12035;49.978;8.298;2023-09-30T21:07:25;22.10;47.50
23713;DHT22;12035;49.978;8.298;2023-09-30T21:12:23;22.00;47.60
23713;DHT22;12035;49.978;8.298;2023-09-30T21:17:22;22.00;47.70
23713;DHT22;12035;49.978;8.298;2023-09-30T21:22:21;21.90;47.80
23713;DHT22;12035;49.978;8.298;2023-09-30T21:27:18;21.80;47.70
23713;DHT22;12035;49.978;8.298;2023-09-30T21:32:16;21.80;47.90
23713;DHT22;12035;49.978;8.298;2023-09-30T21:37:14;21.70;47.90
23713;DHT22;12035;49.978;8.298;2023-09-30T21:42:11;21.70;48.10
23713;DHT22;12035;49.978;8.298;2023-09-30T21:47:10;21.60;48.20
23713;DHT22;12035;49.978;8.298;2023-09-30T21:52:07;21.50;48.40
23713;DHT22;12035;49.978;8.298;2023-09-30T21:57:05;21.40;48.50
23713;DHT22;12035;49.978;8.298;2023-09-30T22:02:02;21.40;48.80
23713;DHT22;12035;49.978;8.298;2023-09-30T22:07:00;21.30;48.80
23713;DHT22;12035;49.978;8.298;2023-09-30T22:11:58;21.20;49.00
23713;DHT22;12035;49.978;8.298;2023-09-30T22:16:57;21.20;49.00
23713;DHT22;12035;49.978;8.298;2023-09-30T22:21:55;21.20;49.20
23713;DHT22;12035;49.978;8.298;2023-09-30T22:26:52;21.10;49.20
23713;DHT22;12035;49.978;8.298;2023-09-30T22:31:49;21.00;49.30
23713;DHT22;12035;49.978;8.298;2023-09-30T22:36:47;20.90;49.50
23713;DHT22;12035;49.978;8.298;2023-09-30T22:41:44;20.80;49.80
23713;DHT22;12035;49.978;8.298;2023-09-30T22:46:42;20.80;49.90
23713;DHT22;12035;49.978;8.298;2023-09-30T22:51:40;20.70;50.10
23713;DHT22;12035;49.978;8.298;2023-09-30T22:56:38;20.60;50.20
23713;DHT22;12035;49.978;8.298;2023-09-30T23:01:35;20.60;50.40
23713;DHT22;12035;49.978;8.298;2023-09-30T23:06:32;20.50;50.40
23713;DHT22;12035;49.978;8.298;2023-09-30T23:11:29;20.50;50.40
23713;DHT22;12035;49.978;8.298;2023-09-30T23:16:28;20.50;50.30
23713;DHT22;12035;49.978;8.298;2023-09-30T23:21:25;20.40;50.70
23713;DHT22;12035;49.978;8.298;2023-09-30T23:26:22;20.40;50.70
23713;DHT22;12035;49.978;8.298;2023-09-30T23:31:20;20.40;50.60
23713;DHT22;12035;49.978;8.298;2023-09-30T23:36:20;20.30;50.60
23713;DHT22;12035;49.978;8.298;2023-09-30T23:41:17;20.30;50.90
23713;DHT22;12035;49.978;8.298;2023-09-30T23:46:15;20.30;50.70
23713;DHT22;12035;49.978;8.298;2023-09-30T23:51:12;20.20;50.60
23713;DHT22;12035;49.978;8.298;2023-09-30T23:56:10;20.20;50.50
